Time;durP1;ratioP1;P1;durP2;ratioP2;P2;SDS_P1;SDS_P2;PMS_P1;PMS_P2;Temp;Humidity;BMP_temperature;BMP_pressure;BME280_temperature;BME280_humidity;BME280_pressure;Samples;Min_cycle;Max_cycle;Signal;HPM_P1;HPM_P2
2022/07/26 00:01:41;;;;;;;1.70;1.60;;;;;;;;;;5065279;28;20189;-73
2022/07/26 00:04:07;;;;;;;2.90;1.80;;;;;;;;;;5071012;28;20208;-73
2022/07/26 00:06:34;;;;;;;3.10;1.57;;;;;;;;;;5066908;28;20193;-74
2022/07/26 00:09:00;;;;;;;2.57;1.47;;;;;;;;;;5071051;28;20192;-74
2022/07/26 00:11:27;;;;;;;3.63;1.70;;;;;;;;;;5068118;28;20255;-74
2022/07/26 00:13:53;;;;;;;3.30;1.63;;;;;;;;;;5059590;28;20233;-74
2022/07/26 00:16:20;;;;;;;1.83;1.60;;;;;;;;;;5067983;28;20262;-74
2022/07/26 00:18:46;;;;;;;3.17;1.70;;;;;;;;;;5065187;28;20238;-74
2022/07/26 00:21:12;;;;;;;2.60;1.70;;;;;;;;;;5065731;28;20592;-74
2022/07/26 00:23:39;;;;;;;4.73;1.90;;;;;;;;;;5067345;28;20221;-73
2022/07/26 00:26:05;;;;;;;4.10;1.60;;;;;;;;;;5067599;28;20228;-74
2022/07/26 00:28:31;;;;;;;1.77;1.67;;;;;;;;;;5059839;28;20825;-74
2022/07/26 00:30:57;;;;;;;3.70;1.50;;;;;;;;;;5066347;28;20185;-74
2022/07/26 00:33:23;;;;;;;2.90;1.70;;;;;;;;;;5068216;28;20214;-74
2022/07/26 00:35:50;;;;;;;4.20;1.80;;;;;;;;;;5074038;28;20179;-74
2022/07/26 00:38:16;;;;;;;2.03;1.83;;;;;;;;;;5061491;28;20186;-73
2022/07/26 00:40:42;;;;;;;4.60;1.90;;;;;;;;;;5064490;28;20275;-74
2022/07/26 00:43:08;;;;;;;3.17;1.80;;;;;;;;;;5065481;28;20685;-74
2022/07/26 00:45:34;;;;;;;2.00;1.80;;;;;;;;;;5066289;28;20189;-74
2022/07/26 00:48:01;;;;;;;2.10;1.60;;;;;;;;;;5068205;28;20205;-74
2022/07/26 00:50:27;;;;;;;2.40;2.00;;;;;;;;;;5077700;28;20181;-74
2022/07/26 00:52:54;;;;;;;3.27;2.07;;;;;;;;;;5054538;28;20205;-74
2022/07/26 00:55:20;;;;;;;2.57;1.97;;;;;;;;;;5069055;28;20216;-74
2022/07/26 00:57:47;;;;;;;2.80;1.73;;;;;;;;;;5063696;28;20168;-74
2022/07/26 01:00:15;;;;;;;3.47;1.80;;;;;;;;;;5070457;28;20677;-74
2022/07/26 01:02:42;;;;;;;2.57;1.97;;;;;;;;;;5070905;28;20219;-74
2022/07/26 01:05:08;;;;;;;2.67;2.00;;;;;;;;;;5061793;28;20193;-74
2022/07/26 01:07:36;;;;;;;3.30;1.87;;;;;;;;;;5061767;28;20189;-74
2022/07/26 01:10:04;;;;;;;2.00;1.80;;;;;;;;;;5064545;28;20213;-74
2022/07/26 01:12:30;;;;;;;2.10;1.80;;;;;;;;;;5070665;28;20209;-74
2022/07/26 01:14:56;;;;;;;3.57;1.83;;;;;;;;;;5076264;28;20209;-73
2022/07/26 01:17:23;;;;;;;1.70;1.50;;;;;;;;;;5074030;28;20188;-74
2022/07/26 01:19:49;;;;;;;3.97;1.80;;;;;;;;;;5077460;28;20238;-74
2022/07/26 01:22:15;;;;;;;4.20;1.80;;;;;;;;;;5068080;28;20683;-74
2022/07/26 01:24:42;;;;;;;2.90;1.77;;;;;;;;;;5076792;28;20658;-74
2022/07/26 01:27:08;;;;;;;3.27;2.00;;;;;;;;;;5076794;28;20641;-74
2022/07/26 01:29:34;;;;;;;2.33;1.93;;;;;;;;;;5066936;28;20182;-74
2022/07/26 01:32:02;;;;;;;3.57;2.13;;;;;;;;;;5063090;28;20200;-74
2022/07/26 01:34:28;;;;;;;2.73;2.10;;;;;;;;;;5073692;28;20196;-74
2022/07/26 01:36:55;;;;;;;4.10;1.90;;;;;;;;;;5060199;28;20239;-74
2022/07/26 01:39:21;;;;;;;2.50;1.70;;;;;;;;;;5065134;28;20181;-74
2022/07/26 01:41:48;;;;;;;6.43;2.03;;;;;;;;;;5065446;28;20178;-74
2022/07/26 01:44:14;;;;;;;4.60;1.87;;;;;;;;;;5067004;28;20775;-74
2022/07/26 01:46:40;;;;;;;2.10;1.90;;;;;;;;;;5070108;28;20185;-74
2022/07/26 01:49:07;;;;;;;2.53;1.90;;;;;;;;;;5074642;28;20603;-74
2022/07/26 01:51:34;;;;;;;2.23;2.03;;;;;;;;;;5063559;28;20280;-74
2022/07/26 01:54:00;;;;;;;2.17;1.70;;;;;;;;;;5066658;28;20252;-74
2022/07/26 01:56:27;;;;;;;2.00;1.80;;;;;;;;;;5070896;28;20177;-74
2022/07/26 01:58:53;;;;;;;3.27;1.90;;;;;;;;;;5060686;28;20253;-73
2022/07/26 02:01:19;;;;;;;2.77;2.30;;;;;;;;;;5061933;28;20187;-74
2022/07/26 02:03:45;;;;;;;2.53;2.00;;;;;;;;;;5064947;28;20285;-74
2022/07/26 02:06:12;;;;;;;2.40;1.90;;;;;;;;;;5064586;28;20529;-73
2022/07/26 02:08:38;;;;;;;2.13;1.90;;;;;;;;;;5066554;28;20178;-73
2022/07/26 02:11:04;;;;;;;2.80;1.90;;;;;;;;;;5062172;28;20204;-73
2022/07/26 02:13:34;;;;;;;2.63;1.90;;;;;;;;;;5069829;28;20730;-73
2022/07/26 02:16:01;;;;;;;3.60;2.30;;;;;;;;;;5066355;28;20610;-73
2022/07/26 02:18:28;;;;;;;3.27;2.00;;;;;;;;;;5052089;28;20188;-73
2022/07/26 02:20:55;;;;;;;3.13;2.00;;;;;;;;;;5068636;28;20755;-74
2022/07/26 02:23:22;;;;;;;2.30;2.10;;;;;;;;;;5069794;28;20197;-73
2022/07/26 02:25:48;;;;;;;3.27;2.20;;;;;;;;;;5066970;28;20226;-74
2022/07/26 02:28:15;;;;;;;3.20;1.90;;;;;;;;;;5070709;28;20190;-74
2022/07/26 02:30:42;;;;;;;2.50;2.10;;;;;;;;;;5062562;28;20198;-74
2022/07/26 02:33:08;;;;;;;2.60;2.20;;;;;;;;;;5068390;28;20220;-73
2022/07/26 02:35:35;;;;;;;2.30;2.00;;;;;;;;;;5069829;28;20204;-73
2022/07/26 02:38:01;;;;;;;3.50;2.00;;;;;;;;;;5065422;28;20268;-74
2022/07/26 02:40:28;;;;;;;1.90;1.70;;;;;;;;;;5069930;28;20181;-74
2022/07/26 02:42:54;;;;;;;3.87;2.10;;;;;;;;;;5071150;28;20193;-74
2022/07/26 02:45:20;;;;;;;2.50;2.00;;;;;;;;;;5069477;28;20173;-74
2022/07/26 02:47:50;;;;;;;2.03;1.83;;;;;;;;;;5069867;28;20225;-74
2022/07/26 02:50:17;;;;;;;2.70;2.17;;;;;;;;;;5069462;28;20182;-74
2022/07/26 02:52:46;;;;;;;2.20;1.97;;;;;;;;;;5069926;28;20620;-74
2022/07/26 02:55:13;;;;;;;2.77;1.90;;;;;;;;;;5070069;28;20204;-73
2022/07/26 02:57:39;;;;;;;2.17;1.97;;;;;;;;;;5072925;28;20534;-73
2022/07/26 03:00:07;;;;;;;2.70;2.00;;;;;;;;;;5067987;28;20239;-73
2022/07/26 03:02:33;;;;;;;3.33;2.20;;;;;;;;;;5069070;28;20201;-74
2022/07/26 03:05:01;;;;;;;2.90;2.10;;;;;;;;;;5072664;28;20185;-73
2022/07/26 03:07:27;;;;;;;2.30;2.03;;;;;;;;;;5066262;28;20732;-73
2022/07/26 03:09:53;;;;;;;5.27;2.20;;;;;;;;;;5064917;28;20177;-74
2022/07/26 03:12:19;;;;;;;4.43;1.90;;;;;;;;;;5067314;28;20268;-74
2022/07/26 03:14:45;;;;;;;2.23;2.00;;;;;;;;;;5067373;28;20205;-73
2022/07/26 03:17:12;;;;;;;3.37;2.30;;;;;;;;;;5071431;28;20646;-74
2022/07/26 03:19:38;;;;;;;3.07;2.30;;;;;;;;;;5065740;28;20311;-73
2022/07/26 03:22:04;;;;;;;1.80;1.70;;;;;;;;;;5062046;28;20212;-73
2022/07/26 03:24:30;;;;;;;3.57;2.00;;;;;;;;;;5070039;28;20646;-73
2022/07/26 03:26:56;;;;;;;2.77;2.17;;;;;;;;;;5070679;28;20177;-73
2022/07/26 03:29:22;;;;;;;1.97;1.80;;;;;;;;;;5076966;28;20177;-73
2022/07/26 03:31:48;;;;;;;3.17;1.80;;;;;;;;;;5069150;28;20233;-73
2022/07/26 03:34:15;;;;;;;1.80;1.70;;;;;;;;;;5076131;28;20205;-73
2022/07/26 03:36:42;;;;;;;2.23;2.00;;;;;;;;;;5061462;28;20208;-74
2022/07/26 03:39:09;;;;;;;2.10;1.70;;;;;;;;;;5069202;28;20181;-73
2022/07/26 03:41:35;;;;;;;2.20;1.90;;;;;;;;;;5072666;28;20251;-74
2022/07/26 03:44:01;;;;;;;3.17;1.90;;;;;;;;;;5066813;28;20227;-74
2022/07/26 03:46:27;;;;;;;2.53;2.17;;;;;;;;;;5071647;28;20234;-74
2022/07/26 03:48:53;;;;;;;3.13;2.10;;;;;;;;;;5069362;28;20173;-74
2022/07/26 03:51:19;;;;;;;4.37;2.30;;;;;;;;;;5069987;28;20180;-74
2022/07/26 03:53:46;;;;;;;2.30;2.07;;;;;;;;;;5067946;28;20301;-74
2022/07/26 03:59:09;;;;;;;2.10;1.90;;;;;;;;;;5069084;28;20200;-74
2022/07/26 04:01:40;;;;;;;3.90;2.30;;;;;;;;;;5066320;28;20219;-74
2022/07/26 04:04:08;;;;;;;2.20;2.00;;;;;;;;;;5063366;28;20209;-73
2022/07/26 04:06:34;;;;;;;2.30;2.10;;;;;;;;;;5068301;28;20229;-74
2022/07/26 04:09:00;;;;;;;2.40;2.13;;;;;;;;;;5067608;28;20189;-74
2022/07/26 04:11:26;;;;;;;2.43;2.17;;;;;;;;;;5066599;28;20203;-74
2022/07/26 04:13:53;;;;;;;3.30;2.50;;;;;;;;;;5065403;28;20304;-74
2022/07/26 04:16:19;;;;;;;2.40;2.20;;;;;;;;;;5065813;28;21209;-74
2022/07/26 04:18:45;;;;;;;4.40;2.13;;;;;;;;;;5067714;28;20183;-74
2022/07/26 04:21:11;;;;;;;3.00;2.57;;;;;;;;;;5064984;28;20260;-73
2022/07/26 04:23:37;;;;;;;2.30;2.10;;;;;;;;;;5065854;28;20212;-74
2022/07/26 04:26:04;;;;;;;3.67;2.67;;;;;;;;;;5067608;28;20669;-74
2022/07/26 04:28:30;;;;;;;2.27;2.03;;;;;;;;;;5070991;28;20266;-74
2022/07/26 04:30:56;;;;;;;3.10;2.37;;;;;;;;;;5068833;28;20177;-74
2022/07/26 04:33:22;;;;;;;5.73;2.53;;;;;;;;;;5068700;28;20563;-73
2022/07/26 04:35:49;;;;;;;2.87;2.40;;;;;;;;;;5067877;28;20256;-73
2022/07/26 04:38:15;;;;;;;2.60;2.30;;;;;;;;;;5066974;28;20197;-74
2022/07/26 04:40:41;;;;;;;3.80;2.57;;;;;;;;;;5065610;28;20259;-74
2022/07/26 04:43:08;;;;;;;4.27;2.50;;;;;;;;;;5064458;28;20248;-74
2022/07/26 04:45:34;;;;;;;4.10;2.47;;;;;;;;;;5069817;28;20709;-74
2022/07/26 04:48:00;;;;;;;4.07;2.70;;;;;;;;;;5067943;28;20280;-73
2022/07/26 04:50:29;;;;;;;4.00;2.00;;;;;;;;;;5068022;28;20180;-74
2022/07/26 04:52:55;;;;;;;2.33;2.13;;;;;;;;;;5071882;28;20297;-74
2022/07/26 04:55:22;;;;;;;2.63;2.40;;;;;;;;;;5070468;28;20475;-74
2022/07/26 04:57:49;;;;;;;3.50;2.40;;;;;;;;;;5069704;28;20201;-74
2022/07/26 05:00:20;;;;;;;3.23;2.50;;;;;;;;;;5067863;28;20177;-74
2022/07/26 05:02:46;;;;;;;3.83;2.37;;;;;;;;;;5069925;28;20193;-73
2022/07/26 05:05:12;;;;;;;4.03;2.77;;;;;;;;;;5071577;28;20636;-74
2022/07/26 05:07:39;;;;;;;4.17;2.53;;;;;;;;;;5067704;28;20181;-74
2022/07/26 05:10:05;;;;;;;2.40;2.20;;;;;;;;;;5068276;28;20609;-74
2022/07/26 05:12:31;;;;;;;3.33;2.50;;;;;;;;;;5070277;28;20235;-74
2022/07/26 05:14:58;;;;;;;3.67;2.23;;;;;;;;;;5064224;28;20213;-74
2022/07/26 05:17:24;;;;;;;2.60;1.80;;;;;;;;;;5071983;28;20177;-74
2022/07/26 05:19:50;;;;;;;5.10;2.20;;;;;;;;;;5068861;28;20256;-74
2022/07/26 05:22:16;;;;;;;3.97;2.13;;;;;;;;;;5067460;28;20189;-74
2022/07/26 05:24:42;;;;;;;3.40;2.20;;;;;;;;;;5067627;28;20185;-74
2022/07/26 05:27:08;;;;;;;2.70;2.23;;;;;;;;;;5068664;28;20238;-74
2022/07/26 05:29:34;;;;;;;3.30;2.30;;;;;;;;;;5066980;28;20177;-74
2022/07/26 05:32:01;;;;;;;3.20;2.00;;;;;;;;;;5070740;28;20189;-74
2022/07/26 05:34:27;;;;;;;3.87;2.43;;;;;;;;;;5073885;28;20685;-74
2022/07/26 05:36:53;;;;;;;3.23;2.30;;;;;;;;;;5069748;28;20169;-74
2022/07/26 05:39:19;;;;;;;4.20;1.93;;;;;;;;;;5064772;28;20177;-74
2022/07/26 05:41:45;;;;;;;2.83;1.80;;;;;;;;;;5069005;28;20185;-74
2022/07/26 05:44:11;;;;;;;4.57;1.70;;;;;;;;;;5072474;28;20197;-74
2022/07/26 05:46:38;;;;;;;5.13;1.60;;;;;;;;;;5072413;28;20694;-74
2022/07/26 05:49:04;;;;;;;3.23;1.70;;;;;;;;;;5070758;28;20185;-74
2022/07/26 05:51:30;;;;;;;3.90;1.50;;;;;;;;;;5068313;28;20185;-74
2022/07/26 05:53:56;;;;;;;5.77;1.63;;;;;;;;;;5070781;28;20250;-74
2022/07/26 05:56:23;;;;;;;2.27;1.50;;;;;;;;;;5069530;28;20194;-74
2022/07/26 05:58:49;;;;;;;2.37;1.50;;;;;;;;;;5071460;28;20176;-74
2022/07/26 06:01:15;;;;;;;3.63;1.90;;;;;;;;;;5072214;28;20177;-74
2022/07/26 06:03:41;;;;;;;2.20;1.50;;;;;;;;;;5072589;28;20201;-74
2022/07/26 06:06:07;;;;;;;3.03;1.70;;;;;;;;;;5067111;28;20189;-74
2022/07/26 06:08:34;;;;;;;4.67;1.40;;;;;;;;;;5064524;28;20177;-73
2022/07/26 06:11:00;;;;;;;5.47;1.80;;;;;;;;;;5079488;28;20235;-74
2022/07/26 06:13:26;;;;;;;3.83;1.60;;;;;;;;;;5076267;28;20199;-73
2022/07/26 06:15:53;;;;;;;2.03;1.60;;;;;;;;;;5071536;28;20292;-74
2022/07/26 06:18:19;;;;;;;4.93;1.50;;;;;;;;;;5088426;28;20272;-75
2022/07/26 06:20:46;;;;;;;5.30;1.80;;;;;;;;;;5066250;28;20189;-74
2022/07/26 06:23:13;;;;;;;3.80;1.63;;;;;;;;;;5072453;28;20217;-74
2022/07/26 06:25:40;;;;;;;6.90;1.90;;;;;;;;;;5077743;28;20192;-73
2022/07/26 06:28:07;;;;;;;1.77;1.60;;;;;;;;;;5064585;28;20205;-73
2022/07/26 06:30:34;;;;;;;3.37;1.60;;;;;;;;;;5069527;28;20188;-73
2022/07/26 06:33:01;;;;;;;2.73;1.67;;;;;;;;;;5061038;28;20290;-73
2022/07/26 06:35:29;;;;;;;2.60;1.60;;;;;;;;;;5066047;28;20205;-73
2022/07/26 06:37:56;;;;;;;2.53;1.70;;;;;;;;;;5068277;28;20231;-73
2022/07/26 06:40:22;;;;;;;3.60;1.70;;;;;;;;;;5068056;28;20619;-73
2022/07/26 06:42:49;;;;;;;3.80;1.97;;;;;;;;;;5077048;28;20701;-73
2022/07/26 06:45:15;;;;;;;1.70;1.60;;;;;;;;;;5074888;28;20181;-73
2022/07/26 06:47:41;;;;;;;2.93;1.73;;;;;;;;;;5071006;28;20181;-73
2022/07/26 06:50:07;;;;;;;5.00;1.80;;;;;;;;;;5069165;28;20685;-73
2022/07/26 06:52:34;;;;;;;4.70;1.90;;;;;;;;;;5071876;28;20212;-73
2022/07/26 06:55:00;;;;;;;5.47;2.03;;;;;;;;;;5072364;28;20610;-73
2022/07/26 06:57:27;;;;;;;4.80;1.90;;;;;;;;;;5061744;28;20204;-73
2022/07/26 06:59:53;;;;;;;5.33;2.00;;;;;;;;;;5067472;28;20177;-72
2022/07/26 07:02:19;;;;;;;5.33;2.17;;;;;;;;;;5069758;28;20206;-72
2022/07/26 07:04:45;;;;;;;2.73;1.70;;;;;;;;;;5058392;28;20234;-72
2022/07/26 07:07:11;;;;;;;9.60;2.03;;;;;;;;;;5062021;28;20556;-73
2022/07/26 07:09:38;;;;;;;4.37;1.90;;;;;;;;;;5062203;28;20178;-73
2022/07/26 07:12:05;;;;;;;3.43;1.50;;;;;;;;;;5066131;28;20268;-73
2022/07/26 07:14:31;;;;;;;3.20;1.40;;;;;;;;;;5060496;28;20210;-73
2022/07/26 07:16:58;;;;;;;3.63;1.70;;;;;;;;;;5064727;28;20174;-73
2022/07/26 07:19:24;;;;;;;3.07;1.63;;;;;;;;;;5079258;28;20260;-73
2022/07/26 07:21:50;;;;;;;4.07;1.50;;;;;;;;;;5071717;28;20278;-73
2022/07/26 07:24:17;;;;;;;3.27;1.60;;;;;;;;;;5066454;28;20208;-73
2022/07/26 07:26:43;;;;;;;2.83;1.70;;;;;;;;;;5062692;28;20185;-73
2022/07/26 07:29:14;;;;;;;3.70;1.60;;;;;;;;;;5057666;28;20188;-73
2022/07/26 07:31:40;;;;;;;2.50;1.40;;;;;;;;;;5053330;28;20188;-73
2022/07/26 07:34:09;;;;;;;2.47;1.40;;;;;;;;;;5052541;28;20343;-73
2022/07/26 07:36:36;;;;;;;1.80;1.50;;;;;;;;;;5058196;28;20193;-73
2022/07/26 07:39:02;;;;;;;3.20;1.70;;;;;;;;;;5063675;28;20422;-73
2022/07/26 07:41:28;;;;;;;2.20;1.40;;;;;;;;;;5077681;28;20184;-73
2022/07/26 07:43:54;;;;;;;3.80;1.53;;;;;;;;;;5067262;28;20205;-73
2022/07/26 07:46:20;;;;;;;2.20;1.40;;;;;;;;;;5070166;28;20189;-73
2022/07/26 07:48:47;;;;;;;5.50;1.50;;;;;;;;;;5067676;28;20240;-73
2022/07/26 07:51:13;;;;;;;2.87;1.50;;;;;;;;;;5065027;28;20212;-74
2022/07/26 07:53:39;;;;;;;2.17;1.43;;;;;;;;;;5068917;28;20682;-75
2022/07/26 07:56:05;;;;;;;5.03;1.53;;;;;;;;;;5065335;28;20247;-74
2022/07/26 07:58:31;;;;;;;1.90;1.30;;;;;;;;;;5057875;28;20698;-72
2022/07/26 08:00:57;;;;;;;2.63;1.40;;;;;;;;;;5064573;28;20189;-74
2022/07/26 08:03:23;;;;;;;3.00;1.43;;;;;;;;;;5065084;28;20213;-74
2022/07/26 08:05:50;;;;;;;2.03;1.40;;;;;;;;;;5068185;28;20185;-74
2022/07/26 08:08:16;;;;;;;3.73;1.40;;;;;;;;;;5068914;28;20256;-74
2022/07/26 08:10:42;;;;;;;1.53;1.10;;;;;;;;;;5064480;28;20196;-74
2022/07/26 08:13:08;;;;;;;1.87;1.20;;;;;;;;;;5064174;28;20209;-74
2022/07/26 08:15:35;;;;;;;3.80;1.40;;;;;;;;;;5067060;28;20207;-75
2022/07/26 08:18:01;;;;;;;5.73;1.50;;;;;;;;;;5066979;28;20265;-75
2022/07/26 08:20:27;;;;;;;1.83;1.30;;;;;;;;;;5067766;28;20174;-75
2022/07/26 08:22:53;;;;;;;1.87;1.30;;;;;;;;;;5064659;28;20197;-75
2022/07/26 08:25:20;;;;;;;2.00;1.40;;;;;;;;;;5069817;28;20539;-75
2022/07/26 08:27:46;;;;;;;3.23;1.17;;;;;;;;;;5062424;28;20208;-75
2022/07/26 08:30:13;;;;;;;1.70;1.10;;;;;;;;;;5054533;28;20224;-75
2022/07/26 08:32:39;;;;;;;1.43;1.20;;;;;;;;;;5068479;28;20237;-75
2022/07/26 08:35:05;;;;;;;2.20;1.17;;;;;;;;;;5064041;28;20220;-75
2022/07/26 08:37:32;;;;;;;3.37;1.20;;;;;;;;;;5064624;28;20266;-75
2022/07/26 08:39:58;;;;;;;2.40;1.20;;;;;;;;;;5068065;28;20174;-75
2022/07/26 08:42:24;;;;;;;2.33;1.17;;;;;;;;;;5070444;28;20722;-76
2022/07/26 08:44:51;;;;;;;1.67;1.10;;;;;;;;;;5072592;28;20174;-76
2022/07/26 08:47:18;;;;;;;1.43;1.00;;;;;;;;;;5071864;28;20840;-76
2022/07/26 08:49:44;;;;;;;4.27;1.30;;;;;;;;;;5071334;28;20621;-76
2022/07/26 08:52:12;;;;;;;2.23;1.00;;;;;;;;;;5078675;28;20303;-76
2022/07/26 08:54:49;;;;;;;1.80;1.03;;;;;;;;;;5075858;28;20238;-76
2022/07/26 08:57:16;;;;;;;3.60;1.30;;;;;;;;;;5074013;28;20231;-75
2022/07/26 08:59:42;;;;;;;3.50;1.40;;;;;;;;;;5072736;28;20365;-76
2022/07/26 09:02:09;;;;;;;5.80;1.30;;;;;;;;;;5071824;28;20230;-75
2022/07/26 09:04:37;;;;;;;1.73;1.20;;;;;;;;;;5061873;28;20316;-76
2022/07/26 09:07:05;;;;;;;2.03;1.00;;;;;;;;;;5073056;28;20173;-76
2022/07/26 09:09:35;;;;;;;3.47;1.10;;;;;;;;;;5089755;28;20199;-76
2022/07/26 09:12:15;;;;;;;5.23;1.50;;;;;;;;;;5075110;28;20197;-76
2022/07/26 09:14:41;;;;;;;2.93;1.17;;;;;;;;;;5065616;28;20228;-76
2022/07/26 09:17:08;;;;;;;1.20;1.00;;;;;;;;;;5072360;28;20181;-76
2022/07/26 09:19:35;;;;;;;2.47;1.17;;;;;;;;;;5058558;28;20181;-76
2022/07/26 09:22:09;;;;;;;1.97;1.17;;;;;;;;;;5074829;28;20639;-75
2022/07/26 09:24:37;;;;;;;3.23;1.40;;;;;;;;;;5068423;28;20192;-76
2022/07/26 09:27:04;;;;;;;2.13;1.23;;;;;;;;;;5079256;28;20264;-76
2022/07/26 09:29:31;;;;;;;2.10;1.40;;;;;;;;;;5070671;28;20188;-76
2022/07/26 09:32:10;;;;;;;1.63;1.33;;;;;;;;;;5067211;28;20185;-76
2022/07/26 09:34:38;;;;;;;2.43;1.30;;;;;;;;;;5065065;28;20686;-76
2022/07/26 09:37:04;;;;;;;2.03;1.20;;;;;;;;;;5070489;28;20208;-76
2022/07/26 09:39:30;;;;;;;3.40;1.30;;;;;;;;;;5077559;28;20606;-76
2022/07/26 09:41:56;;;;;;;2.23;1.10;;;;;;;;;;5070079;28;20169;-76
2022/07/26 09:44:24;;;;;;;2.23;1.10;;;;;;;;;;5072828;28;20558;-76
2022/07/26 09:46:55;;;;;;;2.53;1.20;;;;;;;;;;5074755;28;20185;-76
2022/07/26 09:49:21;;;;;;;1.40;1.10;;;;;;;;;;5070622;28;20208;-76
2022/07/26 09:51:52;;;;;;;1.70;1.13;;;;;;;;;;5066372;28;20181;-76
2022/07/26 09:54:31;;;;;;;2.03;1.20;;;;;;;;;;5067962;28;20697;-76
2022/07/26 09:56:58;;;;;;;2.13;1.20;;;;;;;;;;5065467;28;20184;-76
2022/07/26 09:59:25;;;;;;;1.60;1.00;;;;;;;;;;5072243;28;20234;-76
2022/07/26 10:01:52;;;;;;;4.13;1.30;;;;;;;;;;5068195;28;20169;-76
2022/07/26 10:04:19;;;;;;;1.73;1.20;;;;;;;;;;5069829;28;20746;-76
2022/07/26 10:06:46;;;;;;;3.53;1.30;;;;;;;;;;5058137;28;20190;-76
2022/07/26 10:09:13;;;;;;;1.77;1.30;;;;;;;;;;5051233;28;20234;-75
2022/07/26 10:12:02;;;;;;;2.60;1.10;;;;;;;;;;5065303;28;20202;-76
2022/07/26 10:14:39;;;;;;;1.80;1.10;;;;;;;;;;5063068;28;20241;-76
2022/07/26 10:17:28;;;;;;;1.47;1.00;;;;;;;;;;5075842;28;20195;-76
2022/07/26 10:19:55;;;;;;;2.13;1.20;;;;;;;;;;5067534;28;20277;-76
2022/07/26 10:22:21;;;;;;;2.60;1.10;;;;;;;;;;5068466;28;20572;-76
2022/07/26 10:24:47;;;;;;;3.27;1.20;;;;;;;;;;5064758;28;20605;-76
2022/07/26 10:27:32;;;;;;;3.27;1.20;;;;;;;;;;5072205;28;20189;-76
2022/07/26 10:30:17;;;;;;;2.60;1.10;;;;;;;;;;5054186;28;20182;-76
2022/07/26 10:32:58;;;;;;;2.10;1.20;;;;;;;;;;5064268;28;20209;-76
2022/07/26 10:35:31;;;;;;;2.33;1.00;;;;;;;;;;5067109;28;20210;-77
2022/07/26 10:37:59;;;;;;;2.43;1.10;;;;;;;;;;5071717;28;20329;-76
2022/07/26 10:40:29;;;;;;;3.60;1.13;;;;;;;;;;5078511;28;20219;-76
2022/07/26 10:43:07;;;;;;;2.10;1.10;;;;;;;;;;5062392;28;20666;-75
2022/07/26 10:45:34;;;;;;;1.70;1.00;;;;;;;;;;5065549;28;20565;-74
2022/07/26 10:48:13;;;;;;;1.50;1.00;;;;;;;;;;5069861;28;20183;-75
2022/07/26 10:50:45;;;;;;;2.03;1.10;;;;;;;;;;5070674;28;20211;-75
2022/07/26 10:53:17;;;;;;;3.23;1.10;;;;;;;;;;5082794;28;20207;-75
2022/07/26 10:55:49;;;;;;;0.97;0.93;;;;;;;;;;5066979;28;20222;-75
2022/07/26 10:58:16;;;;;;;1.73;1.30;;;;;;;;;;5067907;28;20188;-75
2022/07/26 11:00:53;;;;;;;1.80;1.10;;;;;;;;;;5076234;28;20179;-75
2022/07/26 11:03:19;;;;;;;1.97;1.00;;;;;;;;;;5068191;28;20266;-75
2022/07/26 11:05:45;;;;;;;2.57;1.03;;;;;;;;;;5076694;28;20272;-75
2022/07/26 11:08:11;;;;;;;3.53;1.03;;;;;;;;;;5068307;28;20209;-76
2022/07/26 11:10:42;;;;;;;2.73;1.13;;;;;;;;;;5069083;28;20196;-75
2022/07/26 11:13:10;;;;;;;1.57;1.00;;;;;;;;;;5068466;28;20551;-75
2022/07/26 11:15:37;;;;;;;1.13;0.90;;;;;;;;;;5064028;28;20221;-75
2022/07/26 11:18:07;;;;;;;2.10;1.00;;;;;;;;;;5061308;28;20195;-76
2022/07/26 11:20:34;;;;;;;1.30;1.00;;;;;;;;;;5061370;28;20761;-76
2022/07/26 11:23:00;;;;;;;1.60;1.03;;;;;;;;;;5065439;28;20211;-76
2022/07/26 11:25:27;;;;;;;1.37;1.00;;;;;;;;;;5062374;28;21614;-76
2022/07/26 11:28:01;;;;;;;2.40;1.20;;;;;;;;;;5067276;28;20180;-76
2022/07/26 11:30:27;;;;;;;1.20;1.10;;;;;;;;;;5064977;28;20191;-76
2022/07/26 11:32:54;;;;;;;3.13;1.30;;;;;;;;;;5040993;28;20219;-76
2022/07/26 11:35:21;;;;;;;1.10;1.00;;;;;;;;;;5067393;28;20257;-76
2022/07/26 11:37:57;;;;;;;2.20;1.10;;;;;;;;;;5067802;28;20180;-76
2022/07/26 11:40:43;;;;;;;1.47;0.93;;;;;;;;;;5068067;28;20175;-77
2022/07/26 11:43:09;;;;;;;1.60;1.10;;;;;;;;;;5067517;28;20197;-76
2022/07/26 11:45:35;;;;;;;3.83;1.20;;;;;;;;;;5070497;28;20173;-76
2022/07/26 11:48:02;;;;;;;1.13;1.03;;;;;;;;;;5076606;28;20189;-76
2022/07/26 11:50:28;;;;;;;1.70;1.30;;;;;;;;;;5066547;28;20183;-76
2022/07/26 11:52:54;;;;;;;1.53;1.20;;;;;;;;;;5066005;28;20200;-76
2022/07/26 11:55:27;;;;;;;1.77;1.10;;;;;;;;;;5062981;28;20759;-76
2022/07/26 11:57:54;;;;;;;2.70;1.17;;;;;;;;;;5064400;28;20198;-76
2022/07/26 12:00:20;;;;;;;1.40;1.00;;;;;;;;;;5064863;28;20184;-76
2022/07/26 12:02:46;;;;;;;2.07;1.03;;;;;;;;;;5067020;28;20570;-76
2022/07/26 12:05:17;;;;;;;2.23;1.30;;;;;;;;;;5076717;28;20621;-76
2022/07/26 12:07:59;;;;;;;3.37;1.20;;;;;;;;;;5075775;28;20196;-76
2022/07/26 12:10:26;;;;;;;2.27;1.40;;;;;;;;;;5085731;28;20195;-76
2022/07/26 12:13:08;;;;;;;1.37;1.00;;;;;;;;;;5076809;28;20211;-76
2022/07/26 12:15:47;;;;;;;1.60;1.03;;;;;;;;;;5076774;28;20215;-76
2022/07/26 12:18:30;;;;;;;1.10;0.90;;;;;;;;;;5065309;28;20196;-76
2022/07/26 12:21:00;;;;;;;1.20;1.10;;;;;;;;;;5085019;28;20191;-76
2022/07/26 12:23:26;;;;;;;1.30;1.17;;;;;;;;;;5074135;28;20212;-76
2022/07/26 12:25:53;;;;;;;1.40;1.10;;;;;;;;;;5069663;28;20678;-76
2022/07/26 12:28:38;;;;;;;1.10;1.00;;;;;;;;;;5062035;28;20192;-76
2022/07/26 12:31:04;;;;;;;1.90;1.10;;;;;;;;;;5075575;28;20192;-77
2022/07/26 12:33:30;;;;;;;2.60;1.00;;;;;;;;;;5065108;28;20702;-76
2022/07/26 12:36:00;;;;;;;1.60;0.90;;;;;;;;;;5062848;28;20642;-76
2022/07/26 12:38:42;;;;;;;1.53;1.03;;;;;;;;;;5075638;28;20181;-76
2022/07/26 12:41:10;;;;;;;1.57;0.90;;;;;;;;;;5072648;28;20281;-76
2022/07/26 12:43:42;;;;;;;1.57;1.17;;;;;;;;;;5070701;28;20542;-77
2022/07/26 12:46:08;;;;;;;1.77;1.10;;;;;;;;;;5066262;28;20245;-76
2022/07/26 12:48:35;;;;;;;1.47;1.10;;;;;;;;;;5082119;28;20335;-76
2022/07/26 12:51:02;;;;;;;1.77;1.00;;;;;;;;;;5070935;28;20236;-76
2022/07/26 12:53:28;;;;;;;1.60;1.10;;;;;;;;;;5073618;28;20705;-76
2022/07/26 12:55:54;;;;;;;3.10;1.30;;;;;;;;;;5074084;28;20683;-76
2022/07/26 12:58:20;;;;;;;1.33;1.10;;;;;;;;;;5071400;28;20645;-77
2022/07/26 13:00:46;;;;;;;1.40;1.00;;;;;;;;;;5064362;28;20173;-76
2022/07/26 13:03:13;;;;;;;2.93;1.20;;;;;;;;;;5066599;28;20218;-76
2022/07/26 13:05:39;;;;;;;1.80;1.20;;;;;;;;;;5072088;28;20255;-76
2022/07/26 13:08:05;;;;;;;2.97;1.20;;;;;;;;;;5068505;28;20191;-76
2022/07/26 13:10:31;;;;;;;2.13;1.20;;;;;;;;;;5072082;28;20257;-77
2022/07/26 13:12:58;;;;;;;1.60;1.10;;;;;;;;;;5068972;28;20200;-77
2022/07/26 13:15:24;;;;;;;3.83;1.10;;;;;;;;;;5071903;28;20206;-77
2022/07/26 13:17:50;;;;;;;3.10;1.20;;;;;;;;;;5080292;28;20177;-77
2022/07/26 13:20:16;;;;;;;1.60;1.20;;;;;;;;;;5066668;28;20177;-76
2022/07/26 13:22:42;;;;;;;2.93;1.10;;;;;;;;;;5077605;28;20339;-76
2022/07/26 13:25:09;;;;;;;3.77;1.10;;;;;;;;;;5067493;28;20205;-76
2022/07/26 13:27:35;;;;;;;1.50;1.20;;;;;;;;;;5074206;28;20262;-76
2022/07/26 13:30:01;;;;;;;1.20;1.10;;;;;;;;;;5062635;28;20181;-76
2022/07/26 13:32:27;;;;;;;1.53;1.07;;;;;;;;;;5075337;28;20847;-76
2022/07/26 13:34:53;;;;;;;2.13;1.20;;;;;;;;;;5073050;28;20210;-76
2022/07/26 13:37:19;;;;;;;4.83;1.07;;;;;;;;;;5069201;28;20195;-76
2022/07/26 13:39:46;;;;;;;1.33;1.00;;;;;;;;;;5067795;28;20207;-77
2022/07/26 13:42:12;;;;;;;2.90;1.00;;;;;;;;;;5078839;28;20185;-76
2022/07/26 13:44:38;;;;;;;1.40;1.00;;;;;;;;;;5074416;28;20277;-76
2022/07/26 13:47:05;;;;;;;2.60;1.00;;;;;;;;;;5083358;28;20176;-75
2022/07/26 13:49:31;;;;;;;1.50;1.23;;;;;;;;;;5077034;28;20205;-77
2022/07/26 13:51:57;;;;;;;2.60;1.20;;;;;;;;;;5069054;28;20182;-76
2022/07/26 13:54:25;;;;;;;2.10;1.00;;;;;;;;;;5071919;28;20302;-75
2022/07/26 13:56:51;;;;;;;0.90;0.90;;;;;;;;;;5083876;28;20222;-78
2022/07/26 13:59:17;;;;;;;1.63;1.20;;;;;;;;;;5071144;28;20176;-75
2022/07/26 14:01:44;;;;;;;2.53;1.30;;;;;;;;;;5067075;28;20246;-81
2022/07/26 14:04:10;;;;;;;1.97;1.40;;;;;;;;;;5064426;28;20242;-77
2022/07/26 14:06:38;;;;;;;2.27;1.13;;;;;;;;;;5066971;28;20181;-76
2022/07/26 14:09:04;;;;;;;1.97;1.10;;;;;;;;;;5064179;28;20186;-76
2022/07/26 14:11:31;;;;;;;1.37;1.10;;;;;;;;;;5077341;28;20245;-76
2022/07/26 14:13:57;;;;;;;1.83;1.20;;;;;;;;;;5064713;28;20801;-77
2022/07/26 14:16:26;;;;;;;2.13;1.30;;;;;;;;;;5062871;28;20182;-77
2022/07/26 14:18:56;;;;;;;1.40;1.10;;;;;;;;;;5065679;28;20525;-76
2022/07/26 14:21:29;;;;;;;1.67;1.10;;;;;;;;;;5049105;28;20240;-76
2022/07/26 14:23:56;;;;;;;1.93;1.00;;;;;;;;;;5072944;28;20201;-76
2022/07/26 14:26:22;;;;;;;2.80;1.20;;;;;;;;;;5070299;28;20180;-75
2022/07/26 14:28:49;;;;;;;1.20;1.10;;;;;;;;;;5078732;28;20177;-75
2022/07/26 14:31:15;;;;;;;2.73;1.00;;;;;;;;;;5067766;28;20193;-75
2022/07/26 14:33:42;;;;;;;2.93;1.10;;;;;;;;;;5076084;28;20198;-75
2022/07/26 14:36:08;;;;;;;1.33;0.93;;;;;;;;;;5066114;28;20214;-75
2022/07/26 14:38:35;;;;;;;1.37;1.10;;;;;;;;;;5074231;28;20188;-75
2022/07/26 14:41:02;;;;;;;2.33;1.20;;;;;;;;;;5075024;28;20256;-75
2022/07/26 14:43:28;;;;;;;1.70;0.97;;;;;;;;;;5064823;28;20213;-75
2022/07/26 14:45:54;;;;;;;1.77;0.97;;;;;;;;;;5059524;28;20255;-75
2022/07/26 14:48:21;;;;;;;2.63;1.00;;;;;;;;;;5059861;28;20192;-75